EDHL/LBC METAR and TAF weather

Enter ICAO airport designator
Station Type Date Time Source
EDHL METAR 2018/09/21 18:50 UTC NOAA

EDHL 211850Z 24008KT CAVOK 12/05 Q1006


Station Type Date Time Source
EDHL Decoded METAR 2018/09/21 18:50 UTC NOAA

Luebeck-Blankensee, Germany (EDHL) 53-49N 010-42E 15M
Sep 21, 2018 - 02:50 PM EDT / 2018.09.21 1850 UTC
Wind: from the WSW (240 degrees) at 9 MPH (8 KT):0
Visibility: greater than 7 mile(s):0
Temperature: 53 F (12 C)
Dew Point: 41 F (5 C)
Relative Humidity: 62%
Pressure (altimeter): 29.71 in. Hg (1006 hPa)
ob: EDHL 211850Z 24008KT CAVOK 12/05 Q1006
cycle: 19

Station Type Date Time Source
EDHL TAF 2010/02/22 14:20 UTC NOAA

METAR EDHL 221420Z 15004KT 110V180 9999 FEW039 SCT120 05/02 Q0990
RMK X


Example: see airport list